Time;durP1;ratioP1;P1;durP2;ratioP2;P2;SDS_P1;SDS_P2;PMS_P1;PMS_P2;Temp;Humidity;BMP_temperature;BMP_pressure;BME280_temperature;BME280_humidity;BME280_pressure;Samples;Min_cycle;Max_cycle;Signal;HPM_P1;HPM_P2
2022/03/02 00:00:09;;;;;;;33.90;21.80;;;4.60;99.90;;;;;;5051618;28;20048;-67
2022/03/02 00:02:35;;;;;;;39.38;22.92;;;4.50;99.90;;;;;;5061073;28;20053;-67
2022/03/02 00:05:01;;;;;;;34.30;21.63;;;4.50;99.90;;;;;;5069364;28;20437;-66
2022/03/02 00:07:26;;;;;;;31.15;19.48;;;4.50;99.90;;;;;;5050945;28;20133;-67
2022/03/02 00:09:52;;;;;;;32.08;21.58;;;4.50;99.90;;;;;;5068725;28;20466;-67
2022/03/02 00:12:18;;;;;;;34.70;20.70;;;4.50;99.90;;;;;;5051665;28;20490;-67
2022/03/02 00:14:44;;;;;;;34.00;23.88;;;4.50;99.90;;;;;;5051484;28;20475;-67
2022/03/02 00:17:10;;;;;;;38.15;23.92;;;4.50;99.90;;;;;;5054751;28;20071;-67
2022/03/02 00:19:36;;;;;;;38.60;23.52;;;4.50;99.90;;;;;;5063523;28;20056;-67
2022/03/02 00:22:01;;;;;;;36.55;23.50;;;4.50;99.90;;;;;;5072779;28;20067;-67
2022/03/02 00:24:27;;;;;;;32.40;22.42;;;4.50;99.90;;;;;;5075559;28;20086;-67
2022/03/02 00:26:53;;;;;;;36.92;23.33;;;4.50;99.90;;;;;;5075510;28;20056;-67
2022/03/02 00:29:18;;;;;;;39.13;23.67;;;4.50;99.90;;;;;;5075180;28;20135;-67
2022/03/02 00:31:44;;;;;;;33.25;21.85;;;4.50;99.90;;;;;;5075884;28;20040;-67
2022/03/02 00:34:10;;;;;;;35.38;22.30;;;4.50;99.90;;;;;;5075577;28;20043;-67
2022/03/02 00:36:36;;;;;;;35.72;23.83;;;4.50;99.90;;;;;;5074842;28;20048;-67
2022/03/02 00:39:02;;;;;;;35.90;23.88;;;4.40;99.90;;;;;;5094184;28;20051;-67
2022/03/02 00:41:28;;;;;;;33.95;23.75;;;4.40;99.90;;;;;;5075870;28;20052;-67
2022/03/02 00:43:54;;;;;;;35.88;22.67;;;4.50;99.90;;;;;;5075216;28;20048;-67
2022/03/02 00:46:20;;;;;;;33.03;22.13;;;4.50;99.90;;;;;;5092164;28;20054;-67
2022/03/02 00:48:49;;;;;;;37.60;22.45;;;4.40;99.90;;;;;;5064975;28;20078;-67
2022/03/02 00:51:15;;;;;;;35.78;22.00;;;4.40;99.90;;;;;;5054689;28;20449;-67
2022/03/02 00:53:40;;;;;;;34.70;23.00;;;4.40;99.90;;;;;;5055004;28;20053;-67
2022/03/02 00:56:06;;;;;;;34.28;22.35;;;4.40;99.90;;;;;;5055742;28;20055;-67
2022/03/02 00:58:32;;;;;;;35.58;21.75;;;4.50;99.90;;;;;;5055359;28;20426;-67
2022/03/02 01:00:57;;;;;;;37.78;22.55;;;4.40;99.90;;;;;;5054860;28;20542;-66
2022/03/02 01:03:23;;;;;;;37.85;23.80;;;4.40;99.90;;;;;;5055854;28;20040;-66
2022/03/02 01:05:49;;;;;;;38.13;23.38;;;4.40;99.90;;;;;;5054577;28;20053;-66
2022/03/02 01:08:15;;;;;;;33.15;21.17;;;4.40;99.90;;;;;;5055477;28;20044;-67
2022/03/02 01:10:40;;;;;;;40.13;24.65;;;4.40;99.90;;;;;;5055568;28;20398;-66
2022/03/02 01:13:06;;;;;;;36.42;23.15;;;4.40;99.90;;;;;;5054888;28;20750;-66
2022/03/02 01:15:32;;;;;;;42.45;25.77;;;4.40;99.90;;;;;;5073616;28;20040;-66
2022/03/02 01:17:57;;;;;;;39.58;24.27;;;4.30;99.90;;;;;;5054745;28;20051;-66
2022/03/02 01:20:23;;;;;;;47.80;26.05;;;4.40;99.90;;;;;;5055504;28;20479;-66
2022/03/02 01:22:48;;;;;;;40.58;24.90;;;4.30;99.90;;;;;;5055305;28;20507;-66
2022/03/02 01:25:14;;;;;;;40.83;22.42;;;4.30;99.90;;;;;;5054867;28;20813;-67
2022/03/02 01:27:40;;;;;;;34.00;23.10;;;4.30;99.90;;;;;;5072802;28;20060;-67
2022/03/02 01:30:07;;;;;;;39.67;25.65;;;4.30;99.90;;;;;;5055170;28;20072;-67
2022/03/02 01:32:33;;;;;;;40.15;24.88;;;4.40;99.90;;;;;;5053940;28;20123;-66
2022/03/02 01:34:59;;;;;;;43.05;26.60;;;4.30;99.90;;;;;;5072087;28;20443;-66
2022/03/02 01:37:24;;;;;;;35.60;23.95;;;4.30;99.90;;;;;;5055058;28;20376;-67
2022/03/02 01:39:50;;;;;;;36.80;23.63;;;4.30;99.90;;;;;;5072062;28;20056;-66
2022/03/02 01:42:15;;;;;;;38.42;24.60;;;4.30;99.90;;;;;;5055039;28;20057;-66
2022/03/02 01:44:41;;;;;;;40.50;24.27;;;4.30;99.90;;;;;;5055133;28;20087;-66
2022/03/02 01:47:07;;;;;;;37.42;23.35;;;4.30;99.90;;;;;;5053905;28;20742;-66
2022/03/02 01:49:34;;;;;;;38.72;24.02;;;4.30;99.90;;;;;;5055110;28;20071;-67
2022/03/02 01:51:59;;;;;;;37.45;24.15;;;4.20;99.90;;;;;;5072562;28;20044;-66
2022/03/02 01:54:25;;;;;;;42.90;25.67;;;4.20;99.90;;;;;;5053932;28;20479;-66
2022/03/02 01:56:51;;;;;;;36.10;23.67;;;4.10;99.90;;;;;;5054701;28;20197;-66
2022/03/02 01:59:17;;;;;;;37.33;24.33;;;4.00;99.90;;;;;;5054692;28;20083;-66
2022/03/02 02:01:47;;;;;;;34.45;22.20;;;4.00;99.90;;;;;;5053482;28;20127;-67
2022/03/02 02:04:13;;;;;;;39.63;24.92;;;3.90;99.90;;;;;;5072722;28;20037;-66
2022/03/02 02:06:39;;;;;;;38.72;24.50;;;3.80;99.90;;;;;;5053640;28;20105;-66
2022/03/02 02:09:07;;;;;;;39.08;22.85;;;3.70;99.90;;;;;;5053183;28;20584;-66
2022/03/02 02:11:33;;;;;;;39.95;25.50;;;3.50;99.90;;;;;;5054394;28;20044;-66
2022/03/02 02:13:59;;;;;;;40.17;24.50;;;3.60;99.90;;;;;;5054097;28;20044;-66
2022/03/02 02:16:25;;;;;;;44.42;25.10;;;3.60;99.90;;;;;;5071713;28;20448;-66
2022/03/02 02:18:54;;;;;;;35.83;23.58;;;3.60;99.90;;;;;;5071999;28;20438;-66
2022/03/02 02:21:20;;;;;;;37.65;26.25;;;3.50;99.90;;;;;;5053344;28;20056;-66
2022/03/02 02:23:46;;;;;;;38.13;24.77;;;3.50;99.90;;;;;;5054064;28;20059;-67
2022/03/02 02:26:14;;;;;;;43.13;25.67;;;3.40;99.90;;;;;;5054268;28;20048;-67
2022/03/02 02:28:40;;;;;;;43.25;24.92;;;3.40;99.90;;;;;;5052745;28;20147;-66
2022/03/02 02:31:06;;;;;;;43.55;25.98;;;3.40;99.90;;;;;;5054508;28;20420;-67
2022/03/02 02:33:32;;;;;;;41.78;25.05;;;3.40;99.90;;;;;;5054053;28;20056;-67
2022/03/02 02:35:58;;;;;;;45.30;25.45;;;3.30;99.90;;;;;;5053066;28;20131;-67
2022/03/02 02:38:24;;;;;;;44.90;25.48;;;3.30;99.90;;;;;;5053916;28;20430;-67
2022/03/02 02:40:52;;;;;;;39.67;24.55;;;3.30;99.90;;;;;;5071633;28;20052;-67
2022/03/02 02:43:21;;;;;;;43.30;25.15;;;3.20;99.90;;;;;;5053500;28;20045;-67
2022/03/02 02:45:47;;;;;;;38.20;25.02;;;3.20;99.90;;;;;;5053308;28;20045;-67
2022/03/02 02:48:12;;;;;;;44.88;26.85;;;3.20;99.90;;;;;;5071633;28;20036;-67
2022/03/02 02:50:38;;;;;;;46.63;26.20;;;3.20;99.90;;;;;;5052666;28;20098;-67
2022/03/02 02:53:07;;;;;;;46.25;27.05;;;3.10;99.90;;;;;;5053694;28;20076;-67
2022/03/02 02:55:34;;;;;;;47.83;27.08;;;3.10;99.90;;;;;;5054074;28;20398;-67
2022/03/02 02:58:07;;;;;;;45.13;26.88;;;3.10;99.90;;;;;;5052493;28;20098;-67
2022/03/02 03:00:36;;;;;;;43.97;24.60;;;3.10;99.90;;;;;;5053258;28;20048;-67
2022/03/02 03:03:02;;;;;;;43.08;27.42;;;3.00;99.90;;;;;;5053194;28;20094;-67
2022/03/02 03:05:31;;;;;;;42.60;26.55;;;3.00;99.90;;;;;;5052380;28;20059;-67
2022/03/02 03:08:02;;;;;;;51.22;28.77;;;3.00;99.90;;;;;;5053305;28;20040;-67
2022/03/02 03:10:28;;;;;;;44.97;26.38;;;2.90;99.90;;;;;;5052543;28;20048;-67
2022/03/02 03:12:53;;;;;;;47.42;28.58;;;2.90;99.90;;;;;;5052917;28;20051;-67
2022/03/02 03:15:20;;;;;;;46.47;29.17;;;2.90;99.90;;;;;;5053137;28;20395;-67
2022/03/02 03:17:46;;;;;;;52.97;28.27;;;2.90;99.90;;;;;;5052582;28;20044;-67
2022/03/02 03:20:15;;;;;;;49.88;28.67;;;2.80;99.90;;;;;;5053366;28;20070;-67
2022/03/02 03:22:41;;;;;;;50.55;29.15;;;2.80;99.90;;;;;;5053104;28;20052;-67
2022/03/02 03:25:08;;;;;;;45.97;26.80;;;2.80;99.90;;;;;;5052633;28;20041;-67
2022/03/02 03:27:37;;;;;;;55.85;28.02;;;2.70;99.90;;;;;;5052918;28;20044;-67
2022/03/02 03:30:05;;;;;;;50.08;28.77;;;2.70;99.90;;;;;;5053264;28;20395;-67
2022/03/02 03:32:30;;;;;;;54.08;30.27;;;2.60;99.90;;;;;;5052292;28;20052;-67
2022/03/02 03:34:56;;;;;;;56.15;30.17;;;2.70;99.90;;;;;;5053088;28;20039;-67
2022/03/02 03:37:22;;;;;;;53.38;29.70;;;2.60;99.90;;;;;;5053225;28;20051;-67
2022/03/02 03:39:48;;;;;;;55.28;29.75;;;2.60;99.90;;;;;;5051946;28;20052;-67
2022/03/02 03:42:14;;;;;;;51.00;29.17;;;2.60;99.90;;;;;;5052807;28;20044;-67
2022/03/02 03:44:39;;;;;;;57.67;31.48;;;2.50;99.90;;;;;;5052341;28;20052;-67
2022/03/02 03:47:06;;;;;;;49.90;29.35;;;2.50;99.90;;;;;;5052448;28;20048;-67
2022/03/02 03:49:37;;;;;;;48.38;28.08;;;2.50;99.90;;;;;;5052766;28;20123;-67
2022/03/02 03:52:03;;;;;;;57.15;30.48;;;2.30;99.90;;;;;;5052708;28;20044;-67
2022/03/02 03:54:29;;;;;;;50.63;29.45;;;2.40;99.90;;;;;;5052184;28;20048;-67
2022/03/02 03:56:54;;;;;;;53.38;29.42;;;2.50;99.90;;;;;;5051817;28;20448;-67
2022/03/02 03:59:20;;;;;;;48.72;28.42;;;2.40;99.90;;;;;;5052829;28;20080;-67
2022/03/02 04:01:46;;;;;;;58.35;30.40;;;2.30;99.90;;;;;;5051972;28;20041;-67
2022/03/02 04:04:12;;;;;;;46.60;27.92;;;2.30;99.90;;;;;;5070825;28;20052;-67
2022/03/02 04:06:38;;;;;;;55.50;29.15;;;2.30;99.90;;;;;;5052391;28;20048;-67
2022/03/02 04:09:04;;;;;;;47.85;28.52;;;2.20;99.90;;;;;;5052221;28;20072;-67
2022/03/02 04:11:30;;;;;;;56.30;29.27;;;2.40;99.90;;;;;;5052588;28;20044;-67
2022/03/02 04:13:56;;;;;;;56.08;30.15;;;2.20;99.90;;;;;;5051722;28;20048;-67
2022/03/02 04:16:22;;;;;;;48.45;26.90;;;2.20;99.90;;;;;;5052554;28;20045;-67
2022/03/02 04:18:48;;;;;;;50.45;29.55;;;2.20;99.90;;;;;;5051918;28;20471;-67
2022/03/02 04:21:14;;;;;;;56.67;32.53;;;2.20;99.90;;;;;;5052247;28;20080;-67
2022/03/02 04:23:39;;;;;;;50.35;27.83;;;2.20;99.90;;;;;;5052261;28;20055;-67
2022/03/02 04:26:05;;;;;;;56.53;30.73;;;2.10;99.90;;;;;;5052512;28;20483;-67
2022/03/02 04:28:30;;;;;;;51.63;28.13;;;2.10;99.90;;;;;;5052202;28;20079;-67
2022/03/02 04:30:56;;;;;;;56.85;33.03;;;2.10;99.90;;;;;;5052347;28;20523;-66
2022/03/02 04:33:22;;;;;;;49.72;27.77;;;2.10;99.90;;;;;;5052504;28;20189;-67
2022/03/02 04:35:48;;;;;;;44.55;28.48;;;2.10;99.90;;;;;;5051136;28;20056;-67
2022/03/02 04:38:13;;;;;;;47.42;28.42;;;2.00;99.90;;;;;;5052497;28;20074;-68
2022/03/02 04:40:39;;;;;;;48.08;29.52;;;2.00;99.90;;;;;;5051954;28;20479;-67
2022/03/02 04:43:05;;;;;;;52.33;29.13;;;2.00;99.90;;;;;;5051991;28;20486;-67
2022/03/02 04:45:31;;;;;;;48.15;25.80;;;1.90;99.90;;;;;;5070222;28;20063;-67
2022/03/02 04:47:58;;;;;;;49.70;28.92;;;1.90;99.90;;;;;;5051931;28;20082;-67
2022/03/02 04:50:25;;;;;;;51.22;29.10;;;1.90;99.90;;;;;;5051625;28;20106;-67
2022/03/02 04:52:51;;;;;;;47.67;28.38;;;1.90;99.90;;;;;;5052087;28;20103;-67
2022/03/02 04:55:18;;;;;;;47.30;27.55;;;1.80;99.90;;;;;;5070243;28;20169;-67
2022/03/02 04:57:49;;;;;;;53.15;29.55;;;1.80;99.90;;;;;;5051168;28;20055;-67
2022/03/02 05:00:25;;;;;;;49.67;28.70;;;1.80;99.90;;;;;;5052127;28;20501;-67
2022/03/02 05:02:51;;;;;;;47.03;28.50;;;1.80;99.90;;;;;;5051910;28;20071;-67
2022/03/02 05:05:21;;;;;;;55.75;28.67;;;1.80;99.90;;;;;;5051592;28;20499;-67
2022/03/02 05:07:48;;;;;;;43.30;27.00;;;1.80;99.90;;;;;;5052580;28;20106;-67
2022/03/02 05:10:15;;;;;;;50.63;28.73;;;1.80;99.90;;;;;;5055151;28;20088;-67
2022/03/02 05:12:41;;;;;;;53.00;27.17;;;1.70;99.90;;;;;;5054976;28;20052;-67
2022/03/02 05:15:09;;;;;;;56.05;29.55;;;1.70;99.90;;;;;;5073732;28;20052;-67
2022/03/02 05:17:36;;;;;;;47.70;28.73;;;1.70;99.90;;;;;;5054925;28;20452;-67
2022/03/02 05:20:03;;;;;;;49.85;28.83;;;1.70;99.90;;;;;;5055447;28;20048;-67
2022/03/02 05:22:28;;;;;;;45.92;27.15;;;1.70;99.90;;;;;;5055516;28;20123;-67
2022/03/02 05:24:54;;;;;;;49.03;31.42;;;1.70;99.90;;;;;;5054329;28;20135;-67
2022/03/02 05:27:20;;;;;;;47.75;27.80;;;1.70;99.90;;;;;;5055265;28;20424;-67
2022/03/02 05:29:45;;;;;;;48.08;29.17;;;1.70;99.90;;;;;;5054864;28;20135;-67
2022/03/02 05:32:11;;;;;;;49.55;29.90;;;1.70;99.90;;;;;;5054546;28;20127;-67
2022/03/02 05:34:37;;;;;;;48.08;27.63;;;1.70;99.90;;;;;;5074078;28;20051;-67
2022/03/02 05:37:03;;;;;;;51.72;29.42;;;1.70;99.90;;;;;;5055884;28;20098;-67
2022/03/02 05:39:29;;;;;;;47.85;28.58;;;1.70;99.90;;;;;;5054555;28;20040;-67
2022/03/02 05:41:54;;;;;;;46.38;27.25;;;1.70;99.90;;;;;;5054863;28;20486;-66
2022/03/02 05:44:20;;;;;;;45.15;27.17;;;1.60;99.90;;;;;;5055337;28;20107;-67
2022/03/02 05:46:46;;;;;;;47.90;28.55;;;1.60;99.90;;;;;;5054321;28;20075;-67
2022/03/02 05:49:13;;;;;;;48.78;28.73;;;1.80;99.90;;;;;;5054698;28;20094;-67
2022/03/02 05:51:38;;;;;;;48.63;28.13;;;1.50;99.90;;;;;;5054603;28;20415;-67
2022/03/02 05:54:05;;;;;;;51.55;28.52;;;1.60;99.90;;;;;;5054079;28;20051;-67
2022/03/02 05:56:32;;;;;;;44.63;26.20;;;1.40;99.90;;;;;;5054884;28;20052;-67
2022/03/02 05:58:58;;;;;;;42.78;25.85;;;1.40;99.90;;;;;;5054237;28;20041;-67
2022/03/02 06:01:24;;;;;;;44.78;26.73;;;1.40;99.90;;;;;;5053873;28;20384;-67
2022/03/02 06:03:49;;;;;;;56.05;28.77;;;1.40;99.90;;;;;;5054604;28;20036;-67
2022/03/02 06:06:15;;;;;;;44.75;27.60;;;1.40;99.90;;;;;;5072192;28;20583;-67
2022/03/02 06:08:42;;;;;;;46.03;27.48;;;1.40;99.90;;;;;;5053880;28;20101;-67
2022/03/02 06:11:08;;;;;;;46.95;26.65;;;1.40;99.90;;;;;;5054571;28;20137;-66
2022/03/02 06:13:37;;;;;;;40.63;26.30;;;1.40;99.90;;;;;;5056550;28;20059;-67
2022/03/02 06:16:03;;;;;;;51.40;30.95;;;1.30;99.90;;;;;;5072387;28;20044;-67
2022/03/02 06:18:29;;;;;;;50.83;27.30;;;1.40;99.90;;;;;;5054118;28;20052;-67
2022/03/02 06:21:01;;;;;;;43.55;27.00;;;1.40;99.90;;;;;;5070484;28;20167;-66
2022/03/02 06:23:28;;;;;;;49.40;27.50;;;1.40;99.90;;;;;;5054489;28;20056;-67
2022/03/02 06:25:54;;;;;;;42.97;26.33;;;1.30;99.90;;;;;;5054228;28;20048;-67
2022/03/02 06:28:21;;;;;;;48.30;26.75;;;1.40;99.90;;;;;;5053354;28;20578;-67
2022/03/02 06:30:47;;;;;;;46.78;27.88;;;1.40;99.90;;;;;;5053931;28;20037;-67
2022/03/02 06:33:21;;;;;;;50.35;27.17;;;1.40;99.90;;;;;;5054122;28;20044;-67
2022/03/02 06:35:48;;;;;;;50.70;30.85;;;1.40;99.90;;;;;;5053098;28;20123;-67
2022/03/02 06:38:14;;;;;;;52.40;27.98;;;1.40;99.90;;;;;;5054224;28;20048;-67
2022/03/02 06:41:03;;;;;;;45.47;27.35;;;1.40;99.90;;;;;;5053724;28;20063;-67
2022/03/02 06:43:34;;;;;;;45.65;27.13;;;1.40;99.90;;;;;;5053407;28;20048;-67
2022/03/02 06:46:10;;;;;;;55.95;32.00;;;1.50;99.90;;;;;;5053905;28;20086;-67
2022/03/02 06:48:57;;;;;;;49.88;29.13;;;1.50;99.90;;;;;;5057669;28;20129;-66
2022/03/02 06:51:24;;;;;;;46.72;26.08;;;1.50;99.90;;;;;;5053732;28;20057;-67
2022/03/02 06:53:51;;;;;;;52.88;29.35;;;1.50;99.90;;;;;;5064803;28;20105;-67
2022/03/02 06:56:21;;;;;;;48.28;27.00;;;1.60;99.90;;;;;;5053234;28;20055;-67
2022/03/02 06:58:54;;;;;;;48.75;27.70;;;1.50;99.90;;;;;;5071252;28;20051;-66
2022/03/02 07:01:29;;;;;;;48.42;28.15;;;1.50;99.90;;;;;;5067150;28;20136;-67
2022/03/02 07:03:57;;;;;;;53.75;29.45;;;1.50;99.90;;;;;;5052466;28;20548;-67
2022/03/02 07:06:25;;;;;;;50.50;27.95;;;1.60;99.90;;;;;;5062205;28;20108;-67
2022/03/02 07:08:51;;;;;;;52.83;29.88;;;1.60;99.90;;;;;;5078960;28;20101;-67
2022/03/02 07:11:17;;;;;;;48.50;28.95;;;1.60;99.90;;;;;;5052460;28;20048;-67
2022/03/02 07:13:44;;;;;;;51.80;30.02;;;1.70;99.90;;;;;;5052809;28;20044;-66
2022/03/02 07:16:12;;;;;;;47.97;27.83;;;1.70;99.90;;;;;;5071319;28;20269;-67
2022/03/02 07:18:38;;;;;;;48.03;28.05;;;1.80;99.90;;;;;;5072168;28;20048;-67
2022/03/02 07:21:14;;;;;;;49.13;29.42;;;1.80;99.90;;;;;;5072869;28;20051;-67
2022/03/02 07:23:46;;;;;;;54.67;32.13;;;1.90;99.90;;;;;;5066433;28;20094;-67
2022/03/02 07:26:12;;;;;;;47.97;29.08;;;1.90;99.90;;;;;;5052452;28;20052;-67
2022/03/02 07:28:39;;;;;;;51.20;30.23;;;1.90;99.90;;;;;;5052205;28;20052;-67
2022/03/02 07:31:08;;;;;;;47.58;28.27;;;2.00;99.90;;;;;;5060646;28;20044;-67
2022/03/02 07:33:41;;;;;;;44.20;27.40;;;2.10;99.90;;;;;;5073588;28;20036;-67
2022/03/02 07:36:10;;;;;;;50.38;30.30;;;2.10;99.90;;;;;;5060738;28;20081;-67
2022/03/02 07:38:37;;;;;;;48.75;29.10;;;2.20;99.90;;;;;;5072267;28;20048;-67
2022/03/02 07:41:10;;;;;;;46.97;27.55;;;2.30;99.90;;;;;;5072847;28;20048;-68
2022/03/02 07:43:38;;;;;;;47.53;28.98;;;2.30;99.90;;;;;;5069449;28;20054;-67
2022/03/02 07:46:12;;;;;;;45.80;26.33;;;2.40;99.90;;;;;;5052216;28;20044;-67
2022/03/02 07:48:38;;;;;;;49.10;29.17;;;2.40;99.90;;;;;;5070561;28;20051;-67
2022/03/02 07:51:06;;;;;;;51.55;29.00;;;2.50;99.90;;;;;;5052915;28;20040;-67
2022/03/02 07:53:40;;;;;;;45.42;29.20;;;2.50;99.90;;;;;;5052173;28;20147;-67
2022/03/02 07:56:08;;;;;;;48.22;27.40;;;2.60;99.90;;;;;;5052942;28;20043;-67
2022/03/02 07:58:37;;;;;;;52.03;28.80;;;2.70;99.90;;;;;;5052670;28;20472;-67
2022/03/02 08:01:03;;;;;;;45.90;28.52;;;2.80;99.90;;;;;;5054500;28;20045;-67
2022/03/02 08:03:32;;;;;;;45.50;27.00;;;2.90;99.90;;;;;;5087719;28;20044;-67
2022/03/02 08:06:05;;;;;;;44.88;29.08;;;3.00;99.90;;;;;;5051823;28;20044;-67
2022/03/02 08:08:31;;;;;;;51.55;28.00;;;3.10;99.90;;;;;;5070877;28;20098;-67
2022/03/02 08:10:57;;;;;;;47.15;28.52;;;3.10;99.90;;;;;;5070703;28;20079;-67
2022/03/02 08:13:27;;;;;;;44.25;27.25;;;3.20;99.90;;;;;;5072136;28;20050;-67
2022/03/02 08:15:53;;;;;;;49.70;29.95;;;3.30;99.90;;;;;;5064102;28;20064;-67
2022/03/02 08:18:18;;;;;;;46.25;28.25;;;3.40;99.90;;;;;;5071013;28;20073;-67
2022/03/02 08:20:50;;;;;;;46.80;28.67;;;3.40;99.90;;;;;;5068159;28;20051;-67
2022/03/02 08:23:17;;;;;;;49.08;28.02;;;3.50;99.90;;;;;;5052624;28;20082;-68
2022/03/02 08:25:44;;;;;;;57.85;30.60;;;3.60;99.90;;;;;;5070365;28;20582;-68
2022/03/02 08:28:10;;;;;;;48.20;29.73;;;3.70;99.90;;;;;;5051795;28;20056;-67
2022/03/02 08:30:38;;;;;;;44.92;28.25;;;3.80;99.90;;;;;;5052494;28;20064;-67
2022/03/02 08:33:06;;;;;;;45.15;28.42;;;3.90;99.90;;;;;;5052208;28;20041;-68
2022/03/02 08:35:38;;;;;;;49.58;29.10;;;3.90;99.90;;;;;;5056368;28;20075;-67
2022/03/02 08:38:03;;;;;;;45.35;28.77;;;4.00;99.90;;;;;;5081856;28;20048;-67
2022/03/02 08:40:29;;;;;;;47.28;30.35;;;4.10;99.90;;;;;;5069961;28;20104;-67
2022/03/02 08:42:57;;;;;;;47.15;28.65;;;4.20;99.90;;;;;;5077048;28;20510;-67
2022/03/02 08:45:23;;;;;;;43.15;26.95;;;4.30;99.90;;;;;;5076331;28;20059;-68
2022/03/02 08:47:49;;;;;;;42.97;26.58;;;4.40;99.90;;;;;;5062771;28;20036;-69
2022/03/02 08:50:15;;;;;;;43.20;28.48;;;4.40;99.90;;;;;;5092244;28;20166;-69
2022/03/02 08:52:42;;;;;;;50.40;27.40;;;4.50;99.90;;;;;;5075675;28;20126;-70
2022/03/02 08:55:12;;;;;;;47.90;28.48;;;4.60;99.90;;;;;;5069177;28;20060;-69
2022/03/02 08:57:42;;;;;;;44.63;27.17;;;4.60;99.90;;;;;;5081963;28;20074;-70
2022/03/02 09:00:10;;;;;;;45.83;29.33;;;4.70;99.90;;;;;;5070209;28;20083;-70
2022/03/02 09:02:39;;;;;;;45.90;29.92;;;4.80;99.90;;;;;;5054149;28;20041;-69
2022/03/02 09:05:06;;;;;;;47.08;27.95;;;4.80;99.90;;;;;;5073275;28;20048;-69
2022/03/02 09:07:32;;;;;;;45.55;28.90;;;4.90;99.90;;;;;;5072690;28;20059;-68
2022/03/02 09:09:59;;;;;;;44.72;26.60;;;4.90;99.90;;;;;;5061801;28;20044;-69
2022/03/02 09:12:25;;;;;;;43.67;29.02;;;5.00;99.90;;;;;;5075233;28;20044;-70
2022/03/02 09:14:51;;;;;;;46.42;29.08;;;5.00;99.90;;;;;;5054475;28;20048;-70
2022/03/02 09:17:18;;;;;;;46.67;27.70;;;5.10;99.90;;;;;;5060447;28;20044;-69
2022/03/02 09:19:43;;;;;;;44.80;28.27;;;5.20;99.90;;;;;;5054991;28;20131;-71
2022/03/02 09:22:09;;;;;;;48.58;27.95;;;5.30;99.90;;;;;;5055374;28;20140;-71
2022/03/02 09:24:37;;;;;;;44.30;28.42;;;5.30;99.90;;;;;;5072186;28;20040;-71
2022/03/02 09:27:07;;;;;;;50.10;27.90;;;5.40;99.90;;;;;;5045279;28;20072;-71
2022/03/02 09:29:33;;;;;;;44.95;28.40;;;5.40;99.90;;;;;;5035300;28;20377;-72
2022/03/02 09:32:02;;;;;;;41.33;27.08;;;5.60;99.90;;;;;;5052945;28;20110;-71
2022/03/02 09:34:29;;;;;;;44.17;26.27;;;5.60;99.90;;;;;;5072824;28;20044;-71
2022/03/02 09:36:56;;;;;;;45.38;28.15;;;5.70;99.90;;;;;;5054437;28;20090;-71
2022/03/02 09:39:23;;;;;;;42.55;28.50;;;5.80;99.90;;;;;;5053761;28;20632;-72
2022/03/02 09:42:03;;;;;;;39.80;26.38;;;5.90;99.90;;;;;;5072552;28;20049;-71
2022/03/02 09:44:41;;;;;;;40.47;27.70;;;6.00;99.90;;;;;;5053897;28;20040;-70
2022/03/02 09:47:09;;;;;;;40.35;25.55;;;6.10;99.90;;;;;;5040906;28;20079;-69
2022/03/02 09:49:35;;;;;;;39.88;25.45;;;6.10;99.90;;;;;;5041166;28;20037;-71
2022/03/02 09:52:12;;;;;;;37.83;25.77;;;6.10;99.90;;;;;;5068422;28;20490;-71
2022/03/02 09:54:44;;;;;;;37.55;25.90;;;6.20;99.90;;;;;;5050929;28;20102;-71
2022/03/02 09:57:10;;;;;;;41.15;26.65;;;6.20;99.90;;;;;;5072204;28;20052;-69
2022/03/02 09:59:38;;;;;;;35.55;24.23;;;6.30;99.90;;;;;;5053607;28;20090;-69
2022/03/02 10:02:10;;;;;;;37.75;26.25;;;6.40;99.90;;;;;;5037937;28;20049;-69
2022/03/02 10:04:36;;;;;;;46.58;25.33;;;6.40;99.90;;;;;;5034189;28;20060;-69
2022/03/02 10:10:05;;;;;;;42.67;24.98;;;6.50;99.90;;;;;;5071578;28;20438;-69
2022/03/02 10:12:32;;;;;;;40.83;26.42;;;6.50;99.90;;;;;;5048854;28;20076;-69
2022/03/02 10:14:58;;;;;;;38.97;24.90;;;6.60;99.90;;;;;;5034374;28;20059;-70
2022/03/02 10:17:31;;;;;;;38.55;24.50;;;6.70;99.90;;;;;;5063194;28;20037;-69
2022/03/02 10:20:02;;;;;;;38.65;25.15;;;6.70;99.90;;;;;;5071184;28;20048;-69
2022/03/02 10:22:44;;;;;;;34.42;22.00;;;6.70;99.90;;;;;;5051022;28;20046;-69
2022/03/02 10:25:14;;;;;;;36.50;25.13;;;6.70;99.90;;;;;;5034024;28;20496;-69
2022/03/02 10:28:00;;;;;;;36.53;23.63;;;6.80;99.90;;;;;;5047554;28;20083;-69
2022/03/02 10:30:32;;;;;;;42.13;23.60;;;6.90;99.90;;;;;;5054142;28;20127;-70
2022/03/02 10:33:18;;;;;;;39.05;25.48;;;7.00;99.90;;;;;;5070679;28;20052;-70
2022/03/02 10:35:56;;;;;;;37.72;24.13;;;7.00;99.90;;;;;;5069565;28;20133;-70
2022/03/02 10:38:39;;;;;;;38.13;24.27;;;7.00;99.90;;;;;;5071916;28;20077;-70
2022/03/02 10:41:08;;;;;;;39.40;26.17;;;7.10;99.90;;;;;;5053642;28;20499;-69
2022/03/02 10:43:58;;;;;;;43.17;25.38;;;7.20;99.90;;;;;;5081925;28;20086;-69
2022/03/02 10:46:25;;;;;;;35.63;24.58;;;7.80;99.90;;;;;;5019579;28;20053;-70
2022/03/02 10:49:05;;;;;;;36.55;24.52;;;7.20;99.90;;;;;;5052787;28;20060;-69
2022/03/02 10:51:33;;;;;;;43.80;26.25;;;7.20;99.90;;;;;;5071851;28;20044;-70
2022/03/02 10:54:03;;;;;;;35.28;24.50;;;7.30;99.90;;;;;;5059698;28;20063;-69
2022/03/02 10:56:30;;;;;;;39.45;24.55;;;7.40;99.90;;;;;;5071249;28;20041;-68
2022/03/02 10:58:59;;;;;;;36.92;24.58;;;7.30;99.90;;;;;;5071559;28;20048;-69
2022/03/02 11:01:25;;;;;;;34.72;24.15;;;7.40;99.90;;;;;;5053324;28;20553;-69
2022/03/02 11:03:51;;;;;;;35.78;23.92;;;7.40;99.90;;;;;;5077219;28;20154;-69
2022/03/02 11:06:19;;;;;;;38.75;23.13;;;7.50;99.90;;;;;;5071107;28;20055;-69
2022/03/02 11:08:45;;;;;;;39.45;23.45;;;7.60;99.90;;;;;;5052851;28;20050;-70
2022/03/02 11:11:11;;;;;;;38.42;23.20;;;7.70;99.90;;;;;;5053320;28;20056;-69
2022/03/02 11:13:38;;;;;;;32.65;21.50;;;7.70;99.90;;;;;;5070988;28;20047;-70
2022/03/02 11:16:05;;;;;;;40.38;24.45;;;7.80;99.90;;;;;;5051942;28;20090;-71
2022/03/02 11:18:42;;;;;;;35.75;22.30;;;7.80;99.90;;;;;;5053100;28;20066;-71
2022/03/02 11:21:11;;;;;;;36.22;23.85;;;8.00;99.90;;;;;;5053126;28;20423;-69
2022/03/02 11:23:43;;;;;;;38.78;24.55;;;8.00;99.90;;;;;;5052050;28;20824;-70
2022/03/02 11:26:16;;;;;;;33.60;22.70;;;8.00;99.90;;;;;;5052527;28;20040;-70
2022/03/02 11:28:53;;;;;;;34.08;23.33;;;8.10;99.90;;;;;;5070280;28;20091;-70
2022/03/02 11:31:31;;;;;;;39.45;23.83;;;8.10;99.90;;;;;;5051977;28;20372;-69
2022/03/02 11:34:18;;;;;;;36.65;24.63;;;8.10;99.90;;;;;;5052612;28;20121;-70
2022/03/02 11:36:50;;;;;;;35.00;23.05;;;8.20;99.90;;;;;;5072593;28;20133;-70
2022/03/02 11:39:18;;;;;;;38.38;23.58;;;8.20;99.90;;;;;;5052797;28;20056;-70
2022/03/02 11:41:56;;;;;;;33.35;23.05;;;8.30;99.90;;;;;;5052435;28;20052;-69
2022/03/02 11:44:31;;;;;;;30.00;20.75;;;8.30;99.90;;;;;;5051882;28;20090;-69
2022/03/02 11:46:58;;;;;;;31.60;19.67;;;8.40;99.90;;;;;;5055585;28;20063;-70
2022/03/02 11:49:39;;;;;;;34.40;21.65;;;8.50;99.90;;;;;;5070132;28;20047;-69
2022/03/02 11:52:07;;;;;;;33.78;22.70;;;7.60;99.90;;;;;;5080523;28;20039;-71
2022/03/02 11:54:57;;;;;;;31.45;21.98;;;8.50;99.90;;;;;;5069637;28;20429;-71
2022/03/02 11:57:24;;;;;;;38.25;22.45;;;8.60;99.90;;;;;;5052974;28;20063;-71
2022/03/02 12:00:06;;;;;;;32.25;21.55;;;8.60;99.90;;;;;;5054725;28;20051;-71
2022/03/02 12:02:49;;;;;;;30.73;21.17;;;8.70;99.90;;;;;;5072270;28;20044;-71
2022/03/02 12:05:17;;;;;;;30.85;20.35;;;8.70;99.90;;;;;;5070119;28;20051;-71
2022/03/02 12:07:45;;;;;;;31.17;19.70;;;8.70;99.90;;;;;;5070539;28;20119;-71
2022/03/02 12:10:26;;;;;;;30.92;20.10;;;8.80;99.90;;;;;;5070764;28;20040;-71
2022/03/02 12:12:53;;;;;;;33.17;20.98;;;8.90;99.90;;;;;;5051302;28;20467;-70
2022/03/02 12:15:21;;;;;;;31.38;19.25;;;8.90;99.90;;;;;;5052482;28;20052;-71
2022/03/02 12:17:48;;;;;;;31.77;19.27;;;8.90;99.90;;;;;;5051848;28;20040;-70
2022/03/02 12:20:17;;;;;;;29.70;20.60;;;8.90;99.90;;;;;;5073714;28;20040;-69
2022/03/02 12:22:49;;;;;;;33.67;20.75;;;9.00;99.90;;;;;;5060705;28;20234;-69
2022/03/02 12:25:23;;;;;;;26.48;17.90;;;9.10;99.90;;;;;;5067728;28;20045;-68
2022/03/02 12:27:58;;;;;;;27.98;18.85;;;9.10;99.90;;;;;;5080141;28;20128;-68
2022/03/02 12:30:27;;;;;;;26.23;18.17;;;9.20;99.90;;;;;;5055880;28;20048;-68
2022/03/02 12:32:54;;;;;;;27.02;18.55;;;9.10;99.90;;;;;;5055653;28;20052;-68
2022/03/02 12:35:23;;;;;;;29.50;17.95;;;9.20;99.90;;;;;;5073301;28;20091;-69
2022/03/02 12:37:50;;;;;;;28.95;18.35;;;9.30;99.90;;;;;;5073696;28;20044;-68
2022/03/02 12:40:16;;;;;;;26.75;17.88;;;9.30;99.90;;;;;;5055054;28;20049;-68
2022/03/02 12:42:43;;;;;;;26.40;17.38;;;9.30;99.90;;;;;;5055693;28;20041;-68